Time;durP1;ratioP1;P1;durP2;ratioP2;P2;SDS_P1;SDS_P2;PMS_P1;PMS_P2;Temp;Humidity;BMP_temperature;BMP_pressure;BME280_temperature;BME280_humidity;BME280_pressure;Samples;Min_cycle;Max_cycle;Signal;HPM_P1;HPM_P2
2023/01/29 00:01:57;;;;;;;59.80;43.13;;;0.50;85.90;;;;;;5034902;28;20036;-75
2023/01/29 00:04:23;;;;;;;59.95;42.00;;;0.60;85.90;;;;;;5030394;28;20381;-75
2023/01/29 00:06:48;;;;;;;56.13;40.63;;;0.60;85.90;;;;;;5030759;28;20054;-75
2023/01/29 00:09:14;;;;;;;60.10;41.53;;;0.60;85.80;;;;;;5030258;28;20025;-75
2023/01/29 00:11:40;;;;;;;59.15;42.63;;;0.60;85.80;;;;;;5027247;28;20428;-76
2023/01/29 00:14:06;;;;;;;58.25;43.05;;;0.60;85.80;;;;;;5026632;28;20059;-75
2023/01/29 00:16:32;;;;;;;54.20;40.45;;;0.60;85.80;;;;;;5032401;28;20065;-75
2023/01/29 00:18:59;;;;;;;55.20;39.90;;;0.60;85.70;;;;;;5026804;28;20436;-75
2023/01/29 00:21:24;;;;;;;55.58;40.97;;;0.60;85.80;;;;;;5033857;28;20051;-75
2023/01/29 00:23:51;;;;;;;59.67;44.53;;;0.50;85.80;;;;;;5027477;28;20017;-75
2023/01/29 00:26:16;;;;;;;56.65;41.28;;;0.60;85.90;;;;;;5031380;28;20029;-75
2023/01/29 00:28:42;;;;;;;60.55;43.63;;;0.50;85.80;;;;;;5029917;28;21148;-76
2023/01/29 00:31:15;;;;;;;57.80;41.55;;;0.50;85.90;;;;;;5033128;28;20576;-75
2023/01/29 00:33:41;;;;;;;58.90;41.20;;;0.50;85.90;;;;;;5027487;28;20154;-75
2023/01/29 00:36:09;;;;;;;58.70;42.30;;;0.60;85.90;;;;;;5030860;28;20305;-75
2023/01/29 00:38:36;;;;;;;56.25;40.35;;;0.50;85.80;;;;;;5027446;28;20024;-75
2023/01/29 00:46:34;;;;;;;57.45;43.17;;;0.50;85.90;;;;;;5029545;28;20489;-75
2023/01/29 00:49:00;;;;;;;58.47;41.45;;;0.50;85.90;;;;;;5033250;28;20169;-75
2023/01/29 00:51:26;;;;;;;57.92;41.42;;;0.50;86.00;;;;;;5029700;28;20484;-75
2023/01/29 00:53:53;;;;;;;60.00;41.47;;;0.40;85.90;;;;;;5031059;28;20049;-75
2023/01/29 00:56:19;;;;;;;57.28;40.33;;;0.40;85.90;;;;;;5028519;28;20385;-75
2023/01/29 00:58:44;;;;;;;57.40;39.08;;;0.40;85.80;;;;;;5036496;28;20029;-75
2023/01/29 01:01:10;;;;;;;55.55;38.88;;;0.40;85.90;;;;;;5033086;28;20044;-75
2023/01/29 01:03:41;;;;;;;57.00;39.95;;;0.40;85.90;;;;;;5038740;28;20095;-75
2023/01/29 01:06:09;;;;;;;53.92;36.85;;;0.50;85.90;;;;;;5038619;28;20215;-75
2023/01/29 01:11:20;;;;;;;75.30;43.67;;;0.50;85.90;;;;;;5040675;28;20687;-75
2023/01/29 01:13:45;;;;;;;104.60;53.10;;;0.50;85.90;;;;;;5045287;28;20028;-75
2023/01/29 01:16:14;;;;;;;87.43;48.60;;;0.60;85.90;;;;;;5039994;28;20422;-75
2023/01/29 01:18:41;;;;;;;63.45;40.60;;;0.60;85.80;;;;;;5045255;28;20043;-75
2023/01/29 01:21:07;;;;;;;56.75;38.17;;;0.60;85.80;;;;;;5041163;28;20048;-75
2023/01/29 01:23:33;;;;;;;50.58;36.42;;;0.60;85.60;;;;;;5040503;28;20025;-75
2023/01/29 01:25:59;;;;;;;50.92;36.70;;;0.70;85.40;;;;;;5042686;28;20033;-75
2023/01/29 01:28:25;;;;;;;53.95;37.35;;;0.70;85.50;;;;;;5039994;28;20459;-75
2023/01/29 01:30:50;;;;;;;52.78;36.67;;;0.70;85.50;;;;;;5042636;28;20420;-75
2023/01/29 01:33:16;;;;;;;54.63;38.53;;;0.70;85.50;;;;;;5042161;28;20055;-75
2023/01/29 01:35:42;;;;;;;52.33;35.58;;;0.80;85.50;;;;;;5043183;28;20033;-75
2023/01/29 01:38:07;;;;;;;52.33;36.10;;;0.80;85.60;;;;;;5040437;28;20517;-75
2023/01/29 01:40:33;;;;;;;52.22;35.53;;;0.80;85.50;;;;;;5044870;28;20021;-75
2023/01/29 01:42:59;;;;;;;55.30;37.60;;;0.80;85.50;;;;;;5044078;28;20013;-75
2023/01/29 01:45:30;;;;;;;52.10;36.13;;;0.80;85.40;;;;;;5041298;28;20033;-75
2023/01/29 01:48:01;;;;;;;51.63;34.67;;;0.90;85.50;;;;;;5039007;28;20073;-75
2023/01/29 01:50:43;;;;;;;56.50;35.67;;;0.90;85.50;;;;;;5043565;28;20017;-75
2023/01/29 01:53:15;;;;;;;52.95;36.63;;;0.90;85.40;;;;;;5041630;28;20457;-75
2023/01/29 01:55:55;;;;;;;52.88;35.58;;;0.90;85.40;;;;;;5041161;28;20512;-75
2023/01/29 01:58:33;;;;;;;51.45;34.03;;;0.90;85.50;;;;;;5036912;28;20443;-75
2023/01/29 02:01:00;;;;;;;50.15;32.80;;;0.90;85.50;;;;;;5038280;28;20077;-75
2023/01/29 02:11:56;;;;;;;49.08;32.50;;;1.00;85.40;;;;;;5041553;28;20040;-75
2023/01/29 02:14:23;;;;;;;52.40;34.65;;;1.00;85.30;;;;;;5043675;28;20033;-75
2023/01/29 02:16:49;;;;;;;54.00;36.50;;;1.00;85.10;;;;;;5039809;28;20102;-75
2023/01/29 02:19:41;;;;;;;54.25;35.80;;;1.00;85.00;;;;;;5042862;28;20024;-75
2023/01/29 02:22:42;;;;;;;53.38;35.45;;;1.00;85.20;;;;;;5041950;28;20040;-75
2023/01/29 02:25:22;;;;;;;52.25;36.28;;;1.10;85.10;;;;;;5043220;28;20737;-75
2023/01/29 02:27:48;;;;;;;56.22;36.95;;;1.10;85.20;;;;;;5042963;28;20029;-75
2023/01/29 02:30:24;;;;;;;52.25;35.13;;;1.10;85.20;;;;;;5041781;28;20028;-75
2023/01/29 02:33:00;;;;;;;51.50;35.55;;;1.10;85.10;;;;;;5042800;28;20091;-75
2023/01/29 02:35:45;;;;;;;54.08;36.92;;;1.10;85.10;;;;;;5042754;28;20477;-75
2023/01/29 02:38:22;;;;;;;56.70;36.37;;;1.10;85.10;;;;;;5041892;28;20465;-75
2023/01/29 02:41:09;;;;;;;52.28;33.95;;;1.20;85.20;;;;;;5042487;28;20055;-75
2023/01/29 02:43:37;;;;;;;55.05;35.28;;;1.20;85.30;;;;;;5039745;28;20037;-75
2023/01/29 02:46:16;;;;;;;54.20;35.92;;;1.20;85.20;;;;;;5040609;28;20033;-76
2023/01/29 02:49:04;;;;;;;53.03;36.45;;;1.20;85.20;;;;;;5042902;28;20469;-75
2023/01/29 02:51:30;;;;;;;54.45;36.42;;;1.20;85.20;;;;;;5042160;28;20170;-75
2023/01/29 02:53:55;;;;;;;52.53;35.95;;;1.20;85.10;;;;;;5042196;28;20456;-75
2023/01/29 02:56:30;;;;;;;54.17;37.90;;;1.30;85.10;;;;;;5045304;28;20136;-76
2023/01/29 02:59:09;;;;;;;54.63;38.50;;;1.30;85.20;;;;;;5041941;28;20467;-75
2023/01/29 03:01:57;;;;;;;57.85;38.47;;;1.30;85.00;;;;;;5040408;28;20041;-75
2023/01/29 03:04:28;;;;;;;58.45;40.00;;;1.30;85.20;;;;;;5040234;28;20013;-75
2023/01/29 03:08:01;;;;;;;55.95;38.03;;;1.30;85.30;;;;;;5039830;28;20440;-75
2023/01/29 03:10:26;;;;;;;55.90;37.28;;;1.30;85.40;;;;;;5039143;28;20056;-75
2023/01/29 03:13:13;;;;;;;57.72;37.90;;;1.20;85.40;;;;;;5039741;28;20051;-75
2023/01/29 03:16:00;;;;;;;56.00;36.75;;;1.20;85.50;;;;;;5041243;28;20052;-75
2023/01/29 03:18:29;;;;;;;54.95;36.22;;;1.20;85.50;;;;;;5036597;28;20088;-75
2023/01/29 03:21:02;;;;;;;58.17;38.22;;;1.30;85.50;;;;;;5035629;28;20037;-75
2023/01/29 03:32:06;;;;;;;57.65;39.50;;;1.40;85.70;;;;;;5037614;28;20082;-75
2023/01/29 03:34:43;;;;;;;55.25;37.97;;;1.40;85.60;;;;;;5041713;28;20477;-76
2023/01/29 03:37:47;;;;;;;55.67;37.45;;;1.40;85.60;;;;;;5037455;28;20494;-75
2023/01/29 03:40:14;;;;;;;54.95;38.25;;;1.40;85.70;;;;;;5041445;28;20017;-75
2023/01/29 03:42:49;;;;;;;56.67;39.42;;;1.50;85.60;;;;;;5040931;28;20040;-75
2023/01/29 03:45:35;;;;;;;57.17;38.28;;;1.60;85.50;;;;;;5039613;28;20400;-75
2023/01/29 03:48:24;;;;;;;57.85;38.47;;;1.60;85.40;;;;;;5040630;28;20056;-75
2023/01/29 03:51:34;;;;;;;58.03;39.17;;;1.50;85.50;;;;;;5030319;28;20618;-75
2023/01/29 03:54:05;;;;;;;54.28;36.88;;;1.50;85.50;;;;;;5039559;28;20416;-75
2023/01/29 03:56:36;;;;;;;51.65;34.83;;;1.60;85.50;;;;;;5039963;28;20037;-76
2023/01/29 03:59:19;;;;;;;54.35;38.03;;;1.60;85.50;;;;;;5040853;28;20116;-76
2023/01/29 04:01:56;;;;;;;58.13;39.47;;;1.60;85.50;;;;;;5040417;28;20033;-75
2023/01/29 04:04:29;;;;;;;54.85;38.60;;;1.60;85.50;;;;;;5039173;28;20036;-75
2023/01/29 04:06:59;;;;;;;52.83;36.80;;;1.60;85.50;;;;;;5039243;28;20037;-75
2023/01/29 04:09:46;;;;;;;53.42;38.20;;;1.70;85.50;;;;;;5041075;28;20320;-76
2023/01/29 04:12:17;;;;;;;58.00;39.00;;;1.70;85.50;;;;;;5040698;28;20034;-75
2023/01/29 04:14:45;;;;;;;55.28;38.83;;;1.70;85.40;;;;;;5040649;28;20070;-76
2023/01/29 04:17:17;;;;;;;56.67;38.70;;;1.70;85.30;;;;;;5036218;28;20044;-75
2023/01/29 04:19:43;;;;;;;52.80;38.08;;;1.70;85.20;;;;;;5040783;28;20025;-75
2023/01/29 04:22:31;;;;;;;53.83;39.47;;;1.80;85.20;;;;;;5034512;28;20029;-76
2023/01/29 04:25:01;;;;;;;55.40;39.90;;;1.80;85.20;;;;;;5036612;28;20024;-75
2023/01/29 04:27:50;;;;;;;57.55;38.70;;;1.80;85.10;;;;;;5042334;28;20017;-75
2023/01/29 04:30:32;;;;;;;53.92;38.40;;;1.80;85.10;;;;;;5038715;28;20039;-75
2023/01/29 04:33:03;;;;;;;51.33;37.63;;;1.80;85.20;;;;;;5038786;28;20103;-76
2023/01/29 04:35:30;;;;;;;54.10;38.45;;;1.80;85.10;;;;;;5040095;28;20013;-75
2023/01/29 04:37:59;;;;;;;55.75;39.00;;;1.80;85.00;;;;;;5038032;28;20025;-76
2023/01/29 04:40:46;;;;;;;56.72;39.00;;;1.80;85.00;;;;;;5038778;28;20025;-75
2023/01/29 04:43:16;;;;;;;55.53;37.40;;;1.80;85.10;;;;;;5042430;28;20025;-75
2023/01/29 04:46:04;;;;;;;52.58;37.33;;;1.90;85.10;;;;;;5038620;28;20045;-76
2023/01/29 04:49:04;;;;;;;52.05;35.30;;;1.90;85.10;;;;;;5038141;28;20044;-76
2023/01/29 04:52:07;;;;;;;52.78;36.67;;;1.90;85.10;;;;;;5035006;28;20305;-76
2023/01/29 04:54:39;;;;;;;54.63;37.05;;;1.90;85.00;;;;;;5039090;28;20029;-75
2023/01/29 04:57:18;;;;;;;53.38;37.47;;;1.90;84.90;;;;;;5040264;28;20060;-76
2023/01/29 04:59:52;;;;;;;51.28;36.47;;;1.90;84.90;;;;;;5043015;28;20029;-76
2023/01/29 05:02:20;;;;;;;55.42;37.47;;;1.90;85.00;;;;;;5038721;28;20089;-76
2023/01/29 05:04:47;;;;;;;53.15;38.60;;;1.90;84.90;;;;;;5038560;28;20029;-76
2023/01/29 05:07:14;;;;;;;55.60;37.67;;;1.90;84.90;;;;;;5037319;28;20021;-76
2023/01/29 05:09:42;;;;;;;53.30;38.20;;;1.90;85.20;;;;;;5036770;28;20044;-76
2023/01/29 05:12:11;;;;;;;54.40;36.50;;;1.90;85.10;;;;;;5036619;28;20022;-76
2023/01/29 05:14:40;;;;;;;52.22;37.05;;;1.90;85.10;;;;;;5032523;28;20025;-76
2023/01/29 05:17:13;;;;;;;50.85;36.85;;;2.00;85.00;;;;;;5039361;28;20056;-75
2023/01/29 05:19:39;;;;;;;53.90;37.63;;;1.90;85.00;;;;;;5037788;28;20481;-76
2023/01/29 05:22:07;;;;;;;50.33;37.28;;;2.00;85.00;;;;;;5036718;28;20055;-76
2023/01/29 05:24:35;;;;;;;54.75;38.65;;;2.00;85.00;;;;;;5030149;28;20478;-75
2023/01/29 05:29:46;;;;;;;51.55;37.58;;;2.00;84.90;;;;;;5033958;28;20047;-76
2023/01/29 05:32:12;;;;;;;50.17;36.33;;;1.90;84.90;;;;;;5033691;28;20025;-76
2023/01/29 05:34:38;;;;;;;57.05;38.55;;;1.90;85.10;;;;;;5039047;28;20029;-76
2023/01/29 05:37:04;;;;;;;51.85;37.60;;;2.00;85.20;;;;;;5039635;28;20025;-76
2023/01/29 05:39:29;;;;;;;53.80;39.47;;;2.00;85.00;;;;;;5040987;28;20540;-76
2023/01/29 05:41:55;;;;;;;56.65;39.50;;;1.90;85.10;;;;;;5038029;28;20029;-76
2023/01/29 05:44:21;;;;;;;54.60;38.13;;;1.90;85.20;;;;;;5037558;28;20117;-76
2023/01/29 05:46:46;;;;;;;56.42;38.78;;;1.90;85.20;;;;;;5040402;28;20033;-75
2023/01/29 05:49:12;;;;;;;52.25;38.08;;;2.00;85.30;;;;;;5042139;28;20033;-75
2023/01/29 05:51:38;;;;;;;53.17;37.83;;;1.90;85.20;;;;;;5039951;28;20087;-76
2023/01/29 05:54:04;;;;;;;51.65;37.20;;;2.00;85.10;;;;;;5045902;28;20028;-76
2023/01/29 05:56:29;;;;;;;53.92;37.85;;;2.00;85.10;;;;;;5040941;28;20477;-76
2023/01/29 05:58:55;;;;;;;55.22;39.63;;;2.00;85.10;;;;;;5039176;28;20070;-75
2023/01/29 06:01:23;;;;;;;57.60;40.65;;;2.00;85.10;;;;;;5034323;28;20408;-75
2023/01/29 06:03:49;;;;;;;55.30;39.20;;;2.00;85.20;;;;;;5039939;28;20020;-75
2023/01/29 06:06:15;;;;;;;57.90;40.30;;;2.00;85.20;;;;;;5042390;28;20052;-75
2023/01/29 06:08:41;;;;;;;56.15;40.00;;;2.00;85.30;;;;;;5041607;28;20029;-75
2023/01/29 06:11:09;;;;;;;53.95;39.35;;;2.00;85.30;;;;;;5043090;28;20033;-75
2023/01/29 06:13:35;;;;;;;58.17;41.80;;;2.10;85.30;;;;;;5042688;28;20317;-76
2023/01/29 06:16:07;;;;;;;57.00;40.92;;;2.00;85.30;;;;;;5040819;28;20036;-75
2023/01/29 06:18:32;;;;;;;59.90;41.08;;;2.10;85.30;;;;;;5041825;28;20480;-75
2023/01/29 06:21:05;;;;;;;55.72;39.35;;;2.00;85.20;;;;;;5040698;28;20021;-75
2023/01/29 06:23:31;;;;;;;57.88;40.33;;;2.00;85.40;;;;;;5042769;28;20024;-75
2023/01/29 06:26:11;;;;;;;59.75;39.92;;;2.00;85.30;;;;;;5029495;28;20033;-75
2023/01/29 06:28:37;;;;;;;57.70;40.47;;;2.00;85.20;;;;;;5041520;28;20037;-75
2023/01/29 06:31:05;;;;;;;58.25;38.65;;;2.10;85.20;;;;;;5043004;28;20029;-75
2023/01/29 06:33:30;;;;;;;54.38;38.05;;;2.10;85.20;;;;;;5042878;28;20074;-76
2023/01/29 06:36:01;;;;;;;56.05;38.97;;;2.10;85.20;;;;;;5039273;28;20033;-75
2023/01/29 06:38:28;;;;;;;57.17;39.20;;;2.10;85.10;;;;;;5040550;28;20100;-75
2023/01/29 06:40:54;;;;;;;52.47;36.88;;;2.10;84.80;;;;;;5037953;28;20032;-75
2023/01/29 06:43:21;;;;;;;58.10;39.75;;;2.10;84.80;;;;;;5039138;28;20459;-75
2023/01/29 06:45:54;;;;;;;54.55;38.20;;;2.10;84.80;;;;;;5038664;28;20076;-75
2023/01/29 06:48:21;;;;;;;57.60;38.88;;;2.10;84.80;;;;;;5037866;28;20045;-75
2023/01/29 06:50:48;;;;;;;55.50;37.90;;;2.10;84.80;;;;;;5040826;28;20029;-75
2023/01/29 06:53:14;;;;;;;54.85;38.30;;;2.20;84.80;;;;;;5038332;28;20024;-75
2023/01/29 06:55:40;;;;;;;54.75;39.28;;;2.20;84.80;;;;;;5039035;28;20432;-75
2023/01/29 06:58:07;;;;;;;56.97;38.90;;;2.20;84.90;;;;;;5040574;28;20818;-76
2023/01/29 07:00:34;;;;;;;55.80;37.65;;;2.20;84.80;;;;;;5041481;28;20021;-75
2023/01/29 07:03:00;;;;;;;57.85;38.08;;;2.20;84.90;;;;;;5041940;28;20516;-75
2023/01/29 07:05:26;;;;;;;53.30;38.28;;;2.20;84.80;;;;;;5030899;28;20458;-76
2023/01/29 07:07:52;;;;;;;56.65;39.80;;;2.20;84.70;;;;;;5043406;28;20033;-75
2023/01/29 07:10:18;;;;;;;54.45;37.47;;;2.20;84.80;;;;;;5047961;28;20028;-75
2023/01/29 07:12:44;;;;;;;54.95;38.47;;;2.20;84.70;;;;;;5044233;28;20063;-76
2023/01/29 07:15:11;;;;;;;55.88;37.95;;;2.20;84.70;;;;;;5041420;28;20480;-74
2023/01/29 07:17:37;;;;;;;53.15;37.28;;;2.20;84.70;;;;;;5041809;28;20087;-75
2023/01/29 07:20:04;;;;;;;52.75;37.85;;;2.20;84.60;;;;;;5039515;28;20107;-75
2023/01/29 07:22:31;;;;;;;56.97;39.60;;;2.20;84.60;;;;;;5039046;28;20448;-75
2023/01/29 07:24:57;;;;;;;54.17;39.40;;;2.20;84.50;;;;;;5037504;28;20449;-75
2023/01/29 07:27:23;;;;;;;50.97;36.88;;;2.20;84.50;;;;;;5039749;28;20029;-75
2023/01/29 07:29:48;;;;;;;57.15;40.17;;;2.20;84.40;;;;;;5036759;28;20033;-75
2023/01/29 07:32:14;;;;;;;53.40;38.63;;;2.30;84.30;;;;;;5036447;28;20469;-74
2023/01/29 07:34:40;;;;;;;55.42;38.60;;;2.30;84.30;;;;;;5041339;28;20458;-74
2023/01/29 07:37:06;;;;;;;52.53;38.85;;;2.30;84.40;;;;;;5035223;28;20542;-75
2023/01/29 07:39:31;;;;;;;53.38;37.47;;;2.30;84.30;;;;;;5036922;28;20043;-74
2023/01/29 07:41:57;;;;;;;54.80;37.63;;;2.30;84.20;;;;;;5034118;28;20033;-75
2023/01/29 07:44:23;;;;;;;59.00;38.90;;;2.30;84.10;;;;;;5039810;28;20079;-75
2023/01/29 07:46:48;;;;;;;53.33;37.72;;;2.30;84.20;;;;;;5040761;28;20537;-75
2023/01/29 07:49:15;;;;;;;56.50;38.83;;;2.30;84.20;;;;;;5039603;28;20033;-74
2023/01/29 07:51:40;;;;;;;55.08;39.28;;;2.40;84.10;;;;;;5039474;28;20110;-75
2023/01/29 07:54:06;;;;;;;57.10;38.30;;;2.30;84.20;;;;;;5035411;28;21043;-75
2023/01/29 07:56:32;;;;;;;58.28;37.70;;;2.40;84.20;;;;;;5033754;28;20057;-74
2023/01/29 07:58:57;;;;;;;59.47;39.90;;;2.40;84.00;;;;;;5037466;28;20491;-75
2023/01/29 08:01:23;;;;;;;56.45;37.00;;;2.40;84.00;;;;;;5039234;28;20018;-74
2023/01/29 08:03:49;;;;;;;53.95;36.42;;;2.40;84.00;;;;;;5041142;28;20043;-75
2023/01/29 08:06:15;;;;;;;54.25;37.35;;;2.50;84.00;;;;;;5039295;28;20032;-72
2023/01/29 08:08:40;;;;;;;55.60;38.58;;;2.40;83.90;;;;;;5038096;28;20033;-72
2023/01/29 08:11:06;;;;;;;52.88;37.47;;;2.50;83.80;;;;;;5035806;28;20029;-73
2023/01/29 08:13:32;;;;;;;55.90;39.28;;;2.50;83.80;;;;;;5039049;28;20028;-72
2023/01/29 08:15:59;;;;;;;52.65;37.90;;;2.50;83.70;;;;;;5041051;28;20078;-73
2023/01/29 08:18:25;;;;;;;51.25;36.15;;;2.60;83.70;;;;;;5040883;28;20503;-73
2023/01/29 08:20:51;;;;;;;52.95;37.28;;;2.60;83.60;;;;;;5040077;28;20539;-72
2023/01/29 08:23:16;;;;;;;52.42;36.28;;;2.60;83.60;;;;;;5039794;28;20025;-72
2023/01/29 08:25:42;;;;;;;52.30;36.03;;;2.60;83.50;;;;;;5040442;28;20051;-73
2023/01/29 08:28:08;;;;;;;54.22;34.92;;;2.70;83.50;;;;;;5036729;28;20528;-72
2023/01/29 08:30:34;;;;;;;51.83;36.22;;;2.70;83.50;;;;;;5032731;28;20041;-72
2023/01/29 08:33:01;;;;;;;52.08;36.30;;;2.80;83.20;;;;;;5034346;28;20016;-72
2023/01/29 08:35:27;;;;;;;49.63;34.88;;;2.80;83.20;;;;;;5035062;28;20092;-72
2023/01/29 08:37:58;;;;;;;51.85;35.55;;;2.80;82.80;;;;;;5034730;28;20025;-72
2023/01/29 08:40:25;;;;;;;52.58;35.95;;;2.80;82.80;;;;;;5032248;28;20024;-72
2023/01/29 08:42:50;;;;;;;53.63;35.78;;;2.80;82.60;;;;;;5030280;28;20043;-73
2023/01/29 08:45:16;;;;;;;50.38;34.42;;;2.90;82.60;;;;;;5033530;28;20100;-72
2023/01/29 08:47:47;;;;;;;51.75;34.33;;;2.90;82.60;;;;;;5034974;28;20124;-72
2023/01/29 08:50:12;;;;;;;50.47;36.00;;;2.90;82.40;;;;;;5028932;28;20114;-72
2023/01/29 08:52:38;;;;;;;49.15;34.97;;;2.90;82.30;;;;;;5034254;28;20039;-72
2023/01/29 08:55:04;;;;;;;51.63;36.65;;;3.00;82.20;;;;;;5034658;28;20465;-72
2023/01/29 08:57:30;;;;;;;49.85;33.95;;;3.10;82.10;;;;;;5033294;28;20037;-72
2023/01/29 08:59:55;;;;;;;50.78;34.50;;;3.10;82.00;;;;;;5036478;28;20416;-73
2023/01/29 09:02:21;;;;;;;50.13;34.22;;;3.10;81.90;;;;;;5030428;28;20298;-73
2023/01/29 09:04:47;;;;;;;51.92;34.35;;;3.10;81.70;;;;;;5027750;28;20036;-73
2023/01/29 09:07:12;;;;;;;53.28;36.50;;;3.10;81.60;;;;;;5029787;28;20456;-72
2023/01/29 09:09:38;;;;;;;49.53;34.90;;;3.20;81.60;;;;;;5028896;28;20021;-72
2023/01/29 09:12:04;;;;;;;46.42;34.05;;;3.10;81.50;;;;;;5027309;28;20037;-72
2023/01/29 09:14:29;;;;;;;50.97;34.53;;;3.10;81.50;;;;;;5030608;28;20063;-72
2023/01/29 09:16:57;;;;;;;50.95;34.92;;;3.10;81.60;;;;;;5029224;28;20151;-72
2023/01/29 09:19:22;;;;;;;47.92;34.78;;;3.10;81.20;;;;;;5028131;28;20083;-73
2023/01/29 09:21:48;;;;;;;48.17;33.85;;;3.10;81.30;;;;;;5030605;28;20045;-73
2023/01/29 09:24:14;;;;;;;50.35;35.60;;;3.20;81.30;;;;;;5035051;28;20349;-73
2023/01/29 09:26:40;;;;;;;48.65;34.78;;;3.10;81.20;;;;;;5038124;28;20406;-73
2023/01/29 09:29:08;;;;;;;46.92;33.47;;;3.10;81.30;;;;;;5039320;28;20078;-73
2023/01/29 09:31:34;;;;;;;49.00;35.35;;;3.10;81.40;;;;;;5037247;28;20033;-73
2023/01/29 09:33:59;;;;;;;48.63;36.08;;;3.10;81.30;;;;;;5032994;28;20021;-73
2023/01/29 09:36:25;;;;;;;49.83;35.22;;;3.10;81.40;;;;;;5038825;28;20069;-73
2023/01/29 09:38:50;;;;;;;46.33;35.13;;;3.10;81.30;;;;;;5038702;28;20031;-73
2023/01/29 09:41:22;;;;;;;50.30;35.83;;;3.10;81.30;;;;;;5043271;28;20039;-73
2023/01/29 09:44:00;;;;;;;52.97;36.60;;;3.10;81.50;;;;;;5042039;28;20789;-73
2023/01/29 09:46:39;;;;;;;48.63;35.70;;;3.10;81.40;;;;;;5037243;28;20037;-73
2023/01/29 09:49:24;;;;;;;53.92;35.33;;;3.10;81.50;;;;;;5035267;28;20463;-73
2023/01/29 09:51:55;;;;;;;49.85;35.17;;;3.20;81.50;;;;;;5041390;28;20380;-73
2023/01/29 09:54:34;;;;;;;48.42;34.58;;;3.10;81.50;;;;;;5041963;28;20021;-73
2023/01/29 09:57:00;;;;;;;46.28;34.67;;;3.10;81.50;;;;;;5040996;28;20074;-73
2023/01/29 09:59:28;;;;;;;46.35;33.72;;;3.20;81.40;;;;;;5042759;28;20037;-73
2023/01/29 10:02:16;;;;;;;51.38;35.25;;;3.20;81.30;;;;;;5043417;28;20702;-73
2023/01/29 10:04:51;;;;;;;47.90;35.70;;;3.30;81.30;;;;;;5035964;28;20052;-73
2023/01/29 10:07:31;;;;;;;48.60;35.95;;;3.30;81.20;;;;;;5040066;28;20451;-74
2023/01/29 10:10:18;;;;;;;51.25;37.97;;;3.40;81.10;;;;;;5039637;28;20380;-74
2023/01/29 10:12:59;;;;;;;49.85;35.97;;;3.40;80.80;;;;;;5022855;28;20167;-73
2023/01/29 10:15:27;;;;;;;48.22;35.40;;;3.50;80.70;;;;;;5041523;28;20040;-74
2023/01/29 10:17:59;;;;;;;47.97;34.40;;;3.60;80.40;;;;;;5036865;28;20063;-73
2023/01/29 10:20:33;;;;;;;44.72;32.78;;;3.60;80.10;;;;;;5035139;28;20041;-73
2023/01/29 10:23:07;;;;;;;44.92;33.92;;;3.70;80.10;;;;;;5040939;28;20040;-73
2023/01/29 10:25:38;;;;;;;45.35;32.85;;;3.70;79.70;;;;;;5037172;28;20029;-72
2023/01/29 10:28:19;;;;;;;46.45;33.05;;;3.80;79.60;;;;;;5033967;28;20017;-73
2023/01/29 10:30:53;;;;;;;43.10;33.13;;;3.90;79.50;;;;;;5035769;28;20118;-72
2023/01/29 10:33:32;;;;;;;45.83;32.38;;;3.90;79.10;;;;;;5035474;28;20071;-73
2023/01/29 10:36:02;;;;;;;44.25;32.97;;;4.00;78.90;;;;;;5030724;28;20045;-71
2023/01/29 10:38:45;;;;;;;45.58;32.42;;;4.00;78.90;;;;;;5031669;28;20025;-71
2023/01/29 10:41:41;;;;;;;46.55;34.10;;;4.10;78.60;;;;;;5032633;28;20029;-72
2023/01/29 10:44:25;;;;;;;43.08;31.77;;;4.10;78.40;;;;;;5032171;28;20055;-73
2023/01/29 10:47:17;;;;;;;39.30;29.85;;;4.20;78.00;;;;;;5037630;28;20033;-73
2023/01/29 10:50:11;;;;;;;40.95;29.30;;;4.20;77.90;;;;;;5037100;28;20338;-72
2023/01/29 10:53:08;;;;;;;38.88;29.55;;;4.30;78.00;;;;;;5033868;28;20571;-74
2023/01/29 10:55:55;;;;;;;37.97;28.15;;;4.40;77.90;;;;;;5030099;28;20029;-73
2023/01/29 10:58:37;;;;;;;43.28;29.33;;;4.40;77.60;;;;;;5036242;28;20021;-72
2023/01/29 11:01:02;;;;;;;40.63;28.48;;;4.50;77.20;;;;;;5034632;28;20021;-73
2023/01/29 11:03:30;;;;;;;42.08;30.00;;;4.50;77.30;;;;;;5035222;28;20036;-72
2023/01/29 11:06:02;;;;;;;42.55;30.13;;;4.50;77.30;;;;;;5034089;28;20029;-72
2023/01/29 11:08:36;;;;;;;41.10;30.20;;;4.60;77.20;;;;;;5039820;28;20322;-73
2023/01/29 11:11:01;;;;;;;38.60;28.15;;;4.60;76.80;;;;;;5037612;28;20044;-74
2023/01/29 11:13:33;;;;;;;41.50;30.17;;;4.70;76.60;;;;;;5037974;28;20025;-73
2023/01/29 11:15:59;;;;;;;37.95;27.83;;;4.80;76.60;;;;;;5039565;28;20048;-73
2023/01/29 11:18:25;;;;;;;39.97;29.50;;;4.90;76.20;;;;;;5033942;28;20079;-72
2023/01/29 11:21:01;;;;;;;39.97;28.85;;;4.90;76.00;;;;;;5038048;28;20123;-72
2023/01/29 11:23:30;;;;;;;38.25;28.42;;;5.00;75.80;;;;;;5034420;28;20109;-72
2023/01/29 11:25:57;;;;;;;38.10;27.75;;;5.00;75.90;;;;;;5038288;28;20025;-72
2023/01/29 11:28:49;;;;;;;38.97;29.02;;;4.90;75.70;;;;;;5038105;28;20500;-72
2023/01/29 11:31:27;;;;;;;34.85;26.00;;;5.00;75.10;;;;;;5036485;28;20047;-72
2023/01/29 11:34:02;;;;;;;38.40;27.52;;;5.10;75.00;;;;;;5032842;28;20037;-73
2023/01/29 11:36:36;;;;;;;33.30;26.83;;;5.20;74.90;;;;;;5032835;28;20041;-72
2023/01/29 11:39:29;;;;;;;33.40;24.83;;;5.30;74.70;;;;;;5038956;28;20087;-72
2023/01/29 11:42:03;;;;;;;38.28;26.15;;;5.20;74.40;;;;;;5033693;28;20017;-71
2023/01/29 11:44:35;;;;;;;34.00;26.48;;;5.20;74.20;;;;;;5027143;28;20029;-71
2023/01/29 11:47:13;;;;;;;34.28;25.63;;;5.20;74.50;;;;;;5032041;28;20504;-71
2023/01/29 11:49:44;;;;;;;33.78;24.52;;;5.10;74.10;;;;;;5038818;28;20400;-71
2023/01/29 11:52:11;;;;;;;32.50;25.05;;;5.10;74.50;;;;;;5034115;28;20029;-71
2023/01/29 11:54:59;;;;;;;40.72;30.80;;;5.20;74.50;;;;;;5037929;28;20099;-72
2023/01/29 11:57:35;;;;;;;35.83;26.08;;;5.20;74.50;;;;;;5028046;28;20377;-72
2023/01/29 12:00:06;;;;;;;37.22;26.15;;;5.40;74.20;;;;;;5040444;28;20031;-72
2023/01/29 12:02:41;;;;;;;38.45;27.02;;;5.40;74.10;;;;;;5038818;28;20025;-72
2023/01/29 12:05:16;;;;;;;36.50;26.02;;;5.40;74.00;;;;;;5026518;28;20068;-73
2023/01/29 12:07:44;;;;;;;34.40;24.45;;;5.40;74.20;;;;;;5034357;28;20059;-73
2023/01/29 12:10:31;;;;;;;34.53;25.38;;;5.50;73.60;;;;;;5041943;28;20095;-73
2023/01/29 12:13:04;;;;;;;37.35;25.80;;;5.50;74.00;;;;;;5040145;28;20052;-73
2023/01/29 12:15:30;;;;;;;32.35;24.00;;;5.60;73.70;;;;;;5033135;28;20036;-73
2023/01/29 12:18:05;;;;;;;35.03;25.88;;;5.50;73.90;;;;;;5040141;28;20021;-73
2023/01/29 12:20:39;;;;;;;33.55;23.40;;;5.50;74.20;;;;;;5041391;28;20111;-73
2023/01/29 12:23:21;;;;;;;33.72;24.10;;;5.50;74.10;;;;;;5036253;28;20021;-73
2023/01/29 12:26:05;;;;;;;34.63;24.40;;;5.50;74.00;;;;;;5029049;28;20048;-73
2023/01/29 12:28:43;;;;;;;35.13;25.25;;;5.40;74.10;;;;;;5031324;28;20025;-73
2023/01/29 12:31:25;;;;;;;36.17;25.73;;;5.50;74.10;;;;;;5029970;28;20031;-73
2023/01/29 12:34:01;;;;;;;34.42;26.15;;;5.40;74.20;;;;;;5030142;28;20041;-73
2023/01/29 12:36:52;;;;;;;37.95;27.05;;;5.30;74.30;;;;;;5027036;28;20294;-73
2023/01/29 12:39:19;;;;;;;36.97;26.10;;;5.30;75.00;;;;;;5030288;28;20017;-74
2023/01/29 12:42:03;;;;;;;36.85;27.45;;;5.30;75.10;;;;;;5030723;28;20033;-73
2023/01/29 12:44:36;;;;;;;44.15;29.92;;;5.30;74.90;;;;;;5029270;28;20063;-74
2023/01/29 12:47:06;;;;;;;38.92;29.05;;;5.30;75.20;;;;;;5038206;28;20049;-73
2023/01/29 12:49:36;;;;;;;43.25;30.05;;;5.30;75.10;;;;;;5043083;28;20053;-74
2023/01/29 12:52:16;;;;;;;40.20;28.40;;;5.40;75.10;;;;;;5039447;28;20064;-74
2023/01/29 12:55:18;;;;;;;37.33;27.52;;;5.40;75.20;;;;;;5041487;28;20108;-73
2023/01/29 12:57:54;;;;;;;36.00;27.05;;;5.30;75.00;;;;;;5017557;28;20378;-73
2023/01/29 13:00:31;;;;;;;37.17;25.98;;;5.40;74.90;;;;;;5036921;28;20025;-73
2023/01/29 13:03:16;;;;;;;37.40;27.23;;;5.60;74.80;;;;;;5042707;28;20476;-72
2023/01/29 13:05:58;;;;;;;34.90;25.42;;;5.60;74.30;;;;;;5041478;28;20041;-72
2023/01/29 13:08:44;;;;;;;36.20;26.00;;;5.60;74.60;;;;;;5047486;28;20393;-72
2023/01/29 13:11:19;;;;;;;40.65;28.98;;;5.60;74.50;;;;;;5045243;28;20249;-73
2023/01/29 13:13:51;;;;;;;;;;;5.60;74.60;;;;;;5040979;28;20014;-72
2023/01/29 13:16:22;;;;;;;41.03;29.05;;;5.70;74.50;;;;;;5046166;28;20053;-71
2023/01/29 13:19:31;;;;;;;39.65;29.02;;;5.80;74.40;;;;;;5046540;28;20492;-73
2023/01/29 13:22:00;;;;;;;37.08;28.02;;;5.80;73.60;;;;;;5043038;28;20036;-72
2023/01/29 13:24:34;;;;;;;38.15;25.73;;;5.90;73.80;;;;;;5031397;28;20013;-73
2023/01/29 13:27:02;;;;;;;36.40;25.00;;;5.90;73.70;;;;;;5045626;28;20025;-73
2023/01/29 13:29:29;;;;;;;33.63;25.70;;;5.90;73.90;;;;;;5038145;28;20029;-73
2023/01/29 13:32:00;;;;;;;36.92;27.85;;;5.90;73.90;;;;;;5041580;28;20041;-73